createdAt,value
2019-05-07T00:02:13.367Z,3.13
2019-05-07T00:04:44.067Z,3.03
2019-05-07T00:07:15.218Z,3.17
2019-05-07T00:09:46.367Z,3.10
2019-05-07T00:12:17.846Z,3.20
2019-05-07T00:14:59.012Z,3.13
2019-05-07T00:17:22.847Z,3.07
2019-05-07T00:19:54.123Z,3.50
2019-05-07T00:22:25.018Z,3.17
2019-05-07T00:24:55.911Z,2.93
2019-05-07T00:27:27.351Z,2.70
2019-05-07T00:29:58.496Z,2.80
2019-05-07T00:32:29.645Z,2.50
2019-05-07T00:35:03.372Z,2.97
2019-05-07T00:37:40.134Z,2.20
2019-05-07T00:40:28.342Z,2.50
2019-05-07T00:43:05.835Z,3.10
2019-05-07T00:45:57.011Z,3.10
2019-05-07T00:48:28.095Z,2.97
2019-05-07T00:51:17.311Z,2.60
2019-05-07T00:53:51.927Z,3.27
2019-05-07T00:56:22.815Z,2.87
2019-05-07T00:58:54.043Z,2.53
2019-05-07T01:01:25.274Z,2.30
2019-05-07T01:03:56.263Z,2.33
2019-05-07T01:06:27.732Z,2.60
2019-05-07T01:08:58.951Z,2.43
2019-05-07T01:11:30.099Z,2.60
2019-05-07T01:14:02.772Z,3.07
2019-05-07T01:16:33.822Z,2.73
2019-05-07T01:19:04.806Z,3.20
2019-05-07T01:21:36.049Z,2.90
2019-05-07T01:24:07.213Z,3.40
2019-05-07T01:26:38.819Z,3.50
2019-05-07T01:29:10.247Z,3.20
2019-05-07T01:31:53.427Z,3.00
2019-05-07T01:34:46.219Z,3.30
2019-05-07T01:37:17.111Z,3.40
2019-05-07T01:39:48.580Z,3.07
2019-05-07T01:42:22.021Z,3.00
2019-05-07T01:44:52.979Z,3.30
2019-05-07T01:47:24.331Z,2.90
2019-05-07T01:49:55.860Z,3.60
2019-05-07T01:52:28.414Z,3.03
2019-05-07T01:54:59.581Z,2.87
2019-05-07T01:57:32.597Z,3.93
2019-05-07T02:00:05.732Z,3.50
2019-05-07T02:02:43.575Z,3.10
2019-05-07T02:05:23.748Z,3.23
2019-05-07T02:07:58.348Z,3.20
2019-05-07T02:10:34.377Z,3.23
2019-05-07T02:13:06.151Z,3.63
2019-05-07T02:15:37.834Z,3.40
2019-05-07T02:18:09.051Z,3.33
2019-05-07T02:20:42.478Z,3.43
2019-05-07T02:23:13.576Z,3.20
2019-05-07T02:25:44.808Z,3.50
2019-05-07T02:28:15.767Z,3.83
2019-05-07T02:30:47.199Z,3.93
2019-05-07T02:33:18.129Z,3.80
2019-05-07T02:35:49.239Z,4.20
2019-05-07T02:38:37.451Z,3.63
2019-05-07T02:41:16.190Z,4.17
2019-05-07T02:43:48.313Z,3.57
2019-05-07T02:46:47.996Z,3.27
2019-05-07T02:49:28.168Z,4.33
2019-05-07T02:52:05.063Z,3.77
2019-05-07T02:54:54.137Z,4.03
2019-05-07T02:57:25.331Z,3.67
2019-05-07T02:59:56.728Z,4.20
2019-05-07T03:02:29.384Z,3.67
2019-05-07T03:05:00.517Z,4.27
2019-05-07T03:07:33.592Z,4.17
2019-05-07T03:10:04.350Z,3.50
2019-05-07T03:12:35.796Z,3.90
2019-05-07T03:15:07.022Z,3.47
2019-05-07T03:17:38.319Z,4.13
2019-05-07T03:20:14.057Z,3.33
2019-05-07T03:22:45.293Z,4.00
2019-05-07T03:25:33.551Z,3.50
2019-05-07T03:28:04.326Z,4.20
2019-05-07T03:30:45.501Z,4.27
2019-05-07T03:33:26.107Z,4.07
2019-05-07T03:35:57.905Z,4.00
2019-05-07T03:38:28.811Z,4.93
2019-05-07T03:41:03.403Z,5.10
2019-05-07T03:43:34.095Z,4.90
2019-05-07T03:46:14.428Z,4.77
2019-05-07T03:48:46.962Z,4.80
2019-05-07T03:51:17.840Z,5.50
2019-05-07T03:53:49.822Z,5.17
2019-05-07T03:56:23.409Z,5.30
2019-05-07T03:58:53.827Z,6.43
2019-05-07T04:01:24.801Z,6.47
2019-05-07T04:03:55.969Z,6.10
2019-05-07T04:06:27.361Z,5.63
2019-05-07T04:08:59.974Z,5.97
2019-05-07T04:11:33.541Z,6.10
2019-05-07T04:14:03.824Z,5.43
2019-05-07T04:16:36.952Z,6.03
2019-05-07T04:19:13.010Z,6.07
2019-05-07T04:21:43.505Z,4.87
2019-05-07T04:24:24.528Z,5.77
2019-05-07T04:27:03.760Z,4.77
2019-05-07T04:29:35.334Z,4.70
2019-05-07T04:32:07.056Z,4.23
2019-05-07T04:34:52.973Z,4.47
2019-05-07T04:37:23.964Z,5.03
2019-05-07T04:39:55.366Z,4.80
2019-05-07T04:42:26.895Z,4.63
2019-05-07T04:44:57.793Z,4.57
2019-05-07T04:47:38.497Z,5.13
2019-05-07T04:50:03.717Z,5.20
2019-05-07T04:52:36.808Z,5.43
2019-05-07T04:55:08.757Z,5.77
2019-05-07T04:57:39.753Z,5.40
2019-05-07T05:00:13.403Z,5.20
2019-05-07T05:03:13.096Z,6.40
2019-05-07T05:05:43.992Z,6.40
2019-05-07T05:08:16.500Z,5.93
2019-05-07T05:10:47.706Z,6.03
2019-05-07T05:13:19.143Z,6.30
2019-05-07T05:15:52.655Z,6.07
2019-05-07T05:18:23.359Z,6.30
2019-05-07T05:21:12.103Z,6.20
2019-05-07T05:24:01.732Z,6.13
2019-05-07T05:26:32.662Z,5.77
2019-05-07T05:29:03.922Z,6.60
2019-05-07T05:31:35.063Z,6.30
2019-05-07T05:34:06.208Z,6.40
2019-05-07T05:36:37.929Z,5.53
2019-05-07T05:39:09.488Z,5.50
2019-05-07T05:41:42.848Z,4.97
2019-05-07T05:44:20.064Z,5.53
2019-05-07T05:46:52.471Z,5.80
2019-05-07T05:49:24.827Z,5.07
2019-05-07T05:52:30.287Z,5.60
2019-05-07T05:55:12.971Z,5.17
2019-05-07T05:58:09.249Z,5.80
2019-05-07T06:01:07.872Z,5.23
2019-05-07T06:03:53.968Z,5.10
2019-05-07T06:06:38.371Z,4.77
2019-05-07T06:09:27.740Z,5.13
2019-05-07T06:12:14.137Z,5.13
2019-05-07T06:14:53.889Z,5.33
2019-05-07T06:17:36.171Z,5.17
2019-05-07T06:20:28.242Z,5.67
2019-05-07T06:23:32.763Z,4.83
2019-05-07T06:26:05.373Z,5.50
2019-05-07T06:28:37.785Z,5.13
2019-05-07T06:31:08.942Z,4.07
2019-05-07T06:33:40.080Z,5.03
2019-05-07T06:36:12.489Z,5.63
2019-05-07T06:38:49.899Z,4.40
2019-05-07T06:41:43.253Z,5.67
2019-05-07T06:44:18.587Z,4.60
2019-05-07T06:46:49.829Z,3.33
2019-05-07T06:49:22.306Z,3.27
2019-05-07T06:51:53.680Z,3.83
2019-05-07T06:54:24.839Z,3.43
2019-05-07T06:56:55.765Z,3.37
2019-05-07T06:59:45.942Z,3.70
2019-05-07T07:02:33.513Z,2.97
2019-05-07T07:05:12.343Z,3.00
2019-05-07T07:07:48.647Z,3.90
2019-05-07T07:10:32.950Z,2.63
2019-05-07T07:13:04.647Z,2.77
2019-05-07T07:15:35.804Z,3.10
2019-05-07T07:18:06.703Z,2.50
2019-05-07T07:20:37.667Z,3.07
2019-05-07T07:23:08.883Z,2.40
2019-05-07T07:25:40.031Z,2.53
2019-05-07T07:28:12.286Z,3.00
2019-05-07T07:30:59.431Z,2.57
2019-05-07T07:33:32.627Z,2.60
2019-05-07T07:36:03.591Z,2.57
2019-05-07T07:38:35.257Z,3.07
2019-05-07T07:41:27.384Z,2.27
2019-05-07T07:43:58.387Z,2.60
2019-05-07T07:46:32.843Z,2.97
2019-05-07T07:49:10.684Z,3.07
2019-05-07T07:51:41.820Z,3.27
2019-05-07T07:54:09.930Z,3.27
2019-05-07T07:57:02.480Z,2.87
2019-05-07T07:59:52.886Z,3.00
2019-05-07T08:02:32.775Z,3.23
2019-05-07T08:05:04.483Z,2.90
2019-05-07T08:07:37.080Z,3.83
2019-05-07T08:10:10.083Z,3.77
2019-05-07T08:12:42.175Z,3.03
2019-05-07T08:15:20.933Z,3.93
2019-05-07T08:17:47.587Z,3.63
2019-05-07T08:20:22.175Z,3.50
2019-05-07T08:22:53.230Z,3.07
2019-05-07T08:25:43.555Z,3.43
2019-05-07T08:28:14.872Z,3.10
2019-05-07T08:30:52.587Z,2.77
2019-05-07T08:33:32.275Z,3.10
2019-05-07T08:36:16.883Z,3.17
2019-05-07T08:38:53.003Z,2.77
2019-05-07T08:41:26.340Z,3.30
2019-05-07T08:44:11.713Z,3.10
2019-05-07T08:46:59.371Z,3.50
2019-05-07T08:49:38.917Z,3.20
2019-05-07T08:52:05.768Z,2.90
2019-05-07T08:54:36.984Z,2.90
2019-05-07T08:57:08.305Z,3.00
2019-05-07T08:59:39.555Z,2.80
2019-05-07T09:02:12.622Z,2.70
2019-05-07T09:04:43.424Z,2.93
2019-05-07T09:07:15.284Z,3.03
2019-05-07T09:09:46.410Z,3.47
2019-05-07T09:12:17.635Z,3.10
2019-05-07T09:14:48.867Z,3.67
2019-05-07T09:17:22.967Z,4.23
2019-05-07T09:19:55.013Z,3.33
2019-05-07T09:22:26.396Z,2.67
2019-05-07T09:24:57.703Z,3.10
2019-05-07T09:27:43.831Z,2.87
2019-05-07T09:30:35.130Z,3.20
2019-05-07T09:33:25.263Z,2.67
2019-05-07T09:35:56.488Z,2.63
2019-05-07T09:38:27.802Z,2.77
2019-05-07T09:40:58.935Z,3.23
2019-05-07T09:43:32.290Z,2.87
2019-05-07T09:46:02.867Z,3.63
2019-05-07T09:48:34.316Z,3.40
2019-05-07T09:51:05.380Z,3.17
2019-05-07T09:53:36.523Z,3.97
2019-05-07T09:56:07.436Z,4.07
2019-05-07T09:58:39.307Z,4.50
2019-05-07T10:01:12.528Z,5.50
2019-05-07T10:03:43.747Z,5.37
2019-05-07T10:06:14.792Z,5.80
2019-05-07T10:08:45.943Z,5.97
2019-05-07T10:11:25.027Z,5.93
2019-05-07T10:14:04.456Z,5.43
2019-05-07T10:16:45.021Z,6.23
2019-05-07T10:19:16.234Z,5.90
2019-05-07T10:21:47.535Z,6.80
2019-05-07T10:24:18.759Z,6.27
2019-05-07T10:26:52.937Z,5.67
2019-05-07T10:29:23.899Z,6.13
2019-05-07T10:31:55.109Z,7.37
2019-05-07T10:34:26.656Z,7.33
2019-05-07T10:36:57.799Z,7.33
2019-05-07T10:39:29.011Z,7.40
2019-05-07T10:42:01.703Z,6.60
2019-05-07T10:44:39.527Z,7.73
2019-05-07T10:47:28.797Z,6.60
2019-05-07T10:50:17.805Z,7.07
2019-05-07T10:52:49.097Z,7.67
2019-05-07T10:55:22.316Z,7.70
2019-05-07T10:57:53.532Z,7.40
2019-05-07T11:00:36.697Z,8.07
2019-05-07T11:03:12.642Z,7.03
2019-05-07T11:05:44.177Z,7.13
2019-05-07T11:08:15.477Z,6.70
2019-05-07T11:10:48.435Z,7.10
2019-05-07T11:13:21.853Z,6.97
2019-05-07T11:15:59.283Z,7.30
2019-05-07T11:18:43.184Z,6.77
2019-05-07T11:21:14.520Z,7.43
2019-05-07T11:23:45.599Z,7.43
2019-05-07T11:26:18.038Z,6.63
2019-05-07T11:28:49.209Z,6.77
2019-05-07T11:31:22.283Z,7.43
2019-05-07T11:33:53.575Z,7.37
2019-05-07T11:36:24.723Z,6.07
2019-05-07T11:38:55.976Z,7.27
2019-05-07T11:41:34.764Z,7.10
2019-05-07T11:44:19.451Z,6.97
2019-05-07T11:47:13.389Z,7.47
2019-05-07T11:50:03.354Z,7.07
2019-05-07T11:52:36.876Z,7.43
2019-05-07T11:55:08.244Z,7.70
2019-05-07T11:57:39.419Z,7.67
2019-05-07T12:00:18.602Z,7.90
2019-05-07T12:02:51.877Z,7.40
2019-05-07T12:05:22.774Z,8.50
2019-05-07T12:07:54.061Z,8.07
2019-05-07T12:10:26.492Z,8.50
2019-05-07T12:12:57.498Z,7.70
2019-05-07T12:15:29.756Z,7.90
2019-05-07T12:18:03.091Z,8.33
2019-05-07T12:20:34.139Z,7.23
2019-05-07T12:23:05.538Z,8.43
2019-05-07T12:25:36.763Z,8.40
2019-05-07T12:28:07.851Z,8.80
2019-05-07T12:30:58.175Z,9.30
2019-05-07T12:33:48.019Z,8.93
2019-05-07T12:36:18.999Z,8.30
2019-05-07T12:38:53.087Z,8.67
2019-05-07T12:41:29.777Z,8.90
2019-05-07T12:44:05.738Z,9.33
2019-05-07T12:46:37.087Z,9.07
2019-05-07T12:49:08.391Z,9.30
2019-05-07T12:51:51.879Z,9.77
2019-05-07T12:54:37.746Z,9.43
2019-05-07T12:57:08.667Z,11.00
2019-05-07T12:59:39.827Z,10.10
2019-05-07T13:02:37.115Z,9.63
2019-05-07T13:04:57.995Z,10.43
2019-05-07T13:08:02.747Z,10.33
2019-05-07T13:10:37.555Z,10.27
2019-05-07T13:13:08.475Z,10.20
2019-05-07T13:15:39.490Z,10.13
2019-05-07T13:18:12.630Z,10.87
2019-05-07T13:20:43.571Z,10.27
2019-05-07T13:23:14.639Z,9.70
2019-05-07T13:25:45.667Z,10.83
2019-05-07T13:28:16.995Z,9.17
2019-05-07T13:30:48.257Z,10.23
2019-05-07T13:33:22.796Z,10.90
2019-05-07T13:35:53.776Z,10.57
2019-05-07T13:38:36.895Z,10.47
2019-05-07T13:41:22.794Z,10.83
2019-05-07T13:44:16.021Z,9.83
2019-05-07T13:46:48.695Z,10.00
2019-05-07T13:49:21.959Z,10.10
2019-05-07T13:52:03.152Z,10.13
2019-05-07T13:54:26.005Z,10.67
2019-05-07T13:56:57.235Z,9.93
2019-05-07T13:59:28.636Z,10.70
2019-05-07T14:02:06.737Z,11.37
2019-05-07T14:04:38.036Z,10.80
2019-05-07T14:07:09.755Z,12.18
2019-05-07T14:09:42.014Z,11.33
2019-05-07T14:12:13.289Z,11.70
2019-05-07T14:14:44.508Z,11.57
2019-05-07T14:17:15.759Z,12.37
2019-05-07T14:19:58.562Z,12.10
2019-05-07T14:22:31.667Z,13.20
2019-05-07T14:25:02.684Z,13.30
2019-05-07T14:27:35.083Z,12.57
2019-05-07T14:30:06.397Z,12.23
2019-05-07T14:32:56.862Z,13.27
2019-05-07T14:35:38.064Z,15.63
2019-05-07T14:38:18.606Z,13.00
2019-05-07T14:40:51.890Z,13.40
2019-05-07T14:43:32.510Z,14.43
2019-05-07T14:46:03.596Z,13.83
2019-05-07T14:48:36.354Z,13.13
2019-05-07T14:51:07.893Z,15.03
2019-05-07T14:53:38.951Z,13.33
2019-05-07T14:56:11.846Z,14.10
2019-05-07T14:58:43.743Z,16.00
2019-05-07T15:01:14.807Z,15.57
2019-05-07T15:03:46.438Z,16.65
2019-05-07T15:06:17.449Z,15.40
2019-05-07T15:08:48.715Z,17.70
2019-05-07T15:11:19.905Z,13.50
2019-05-07T15:13:52.183Z,17.40
2019-05-07T15:16:23.622Z,13.67
2019-05-07T15:18:56.823Z,13.80
2019-05-07T15:21:28.651Z,15.38
2019-05-07T15:24:02.117Z,15.37
2019-05-07T15:26:34.483Z,15.47
2019-05-07T15:29:12.225Z,16.03
2019-05-07T15:31:58.352Z,15.70
2019-05-07T15:34:29.656Z,15.20
2019-05-07T15:37:01.664Z,13.90
2019-05-07T15:39:33.143Z,13.90
2019-05-07T15:42:05.206Z,14.07
2019-05-07T15:44:36.459Z,21.83
2019-05-07T15:47:12.682Z,13.07
2019-05-07T15:49:44.004Z,12.83
2019-05-07T15:52:22.180Z,12.47
2019-05-07T15:54:53.428Z,12.93
2019-05-07T15:57:27.751Z,13.47
2019-05-07T16:00:08.607Z,13.77
2019-05-07T16:02:45.266Z,14.60
2019-05-07T16:05:18.943Z,13.47
2019-05-07T16:07:50.242Z,11.97
2019-05-07T16:10:23.340Z,12.10
2019-05-07T16:12:54.915Z,11.20
2019-05-07T16:15:27.169Z,9.97
2019-05-07T16:18:03.309Z,11.83
2019-05-07T16:20:34.623Z,12.50
2019-05-07T16:23:14.999Z,12.10
2019-05-07T16:25:38.883Z,12.70
2019-05-07T16:28:12.600Z,11.87
2019-05-07T16:30:43.174Z,11.50
2019-05-07T16:33:14.831Z,11.20
2019-05-07T16:35:46.119Z,11.50
2019-05-07T16:38:18.192Z,12.33
2019-05-07T16:40:49.683Z,11.47
2019-05-07T16:43:22.094Z,11.30
2019-05-07T16:45:54.227Z,11.00
2019-05-07T16:48:25.309Z,11.03
2019-05-07T16:50:56.583Z,11.43
2019-05-07T16:53:30.193Z,12.10
2019-05-07T16:56:00.419Z,11.67
2019-05-07T16:58:35.843Z,11.03
2019-05-07T17:01:08.832Z,11.40
2019-05-07T17:03:52.795Z,10.57
2019-05-07T17:06:25.235Z,10.93
2019-05-07T17:09:02.469Z,10.90
2019-05-07T17:11:35.204Z,11.00
2019-05-07T17:14:06.213Z,10.83
2019-05-07T17:16:37.533Z,11.23
2019-05-07T17:19:09.325Z,11.13
2019-05-07T17:21:43.104Z,11.40
2019-05-07T17:24:15.628Z,12.30
2019-05-07T17:26:46.899Z,11.60
2019-05-07T17:29:18.162Z,11.30
2019-05-07T17:31:49.398Z,10.03
2019-05-07T17:34:22.147Z,11.10
2019-05-07T17:36:53.631Z,10.80
2019-05-07T17:39:24.931Z,11.23
2019-05-07T17:41:56.169Z,10.93
2019-05-07T17:44:27.408Z,11.47
2019-05-07T17:46:58.380Z,11.20
2019-05-07T17:49:32.172Z,12.05
2019-05-07T17:52:04.151Z,12.90
2019-05-07T17:54:35.191Z,10.63
2019-05-07T17:57:06.406Z,11.87
2019-05-07T17:59:37.824Z,12.95
2019-05-07T18:02:16.056Z,12.57
2019-05-07T18:04:52.218Z,12.60
2019-05-07T18:07:23.091Z,11.47
2019-05-07T18:09:54.335Z,10.37
2019-05-07T18:12:25.807Z,10.70
2019-05-07T18:14:57.013Z,10.20
2019-05-07T18:17:37.062Z,10.60
2019-05-07T18:20:08.055Z,10.53
2019-05-07T18:22:39.323Z,11.20
2019-05-07T18:25:12.481Z,10.87
2019-05-07T18:27:43.720Z,10.33
2019-05-07T18:30:14.898Z,10.10
2019-05-07T18:32:52.024Z,10.30
2019-05-07T18:35:23.343Z,10.10
2019-05-07T18:37:54.883Z,9.67
2019-05-07T18:40:26.298Z,9.83
2019-05-07T18:42:57.378Z,10.17
2019-05-07T18:45:28.528Z,8.50
2019-05-07T18:48:02.436Z,9.10
2019-05-07T18:50:34.507Z,8.67
2019-05-07T18:53:05.454Z,9.40
2019-05-07T18:55:37.019Z,9.57
2019-05-07T18:58:08.444Z,9.60
2019-05-07T19:00:43.478Z,8.60
2019-05-07T19:03:15.035Z,8.53
2019-05-07T19:05:46.064Z,9.57
2019-05-07T19:08:17.115Z,9.67
2019-05-07T19:10:48.297Z,9.20
2019-05-07T19:13:22.141Z,9.53
2019-05-07T19:15:56.665Z,9.67
2019-05-07T19:18:26.696Z,8.27
2019-05-07T19:20:57.702Z,9.20
2019-05-07T19:23:28.886Z,9.43
2019-05-07T19:26:02.335Z,9.17
2019-05-07T19:28:33.042Z,9.37
2019-05-07T19:31:04.411Z,9.40
2019-05-07T19:33:35.836Z,9.57
2019-05-07T19:36:07.139Z,9.67
2019-05-07T19:38:38.052Z,8.53
2019-05-07T19:41:09.503Z,9.10
2019-05-07T19:43:41.933Z,9.67
2019-05-07T19:46:13.004Z,8.83
2019-05-07T19:48:44.162Z,9.80
2019-05-07T19:51:15.350Z,9.67
2019-05-07T19:53:46.337Z,9.90
2019-05-07T19:56:22.818Z,9.43
2019-05-07T19:58:53.898Z,9.23
2019-05-07T20:01:50.379Z,9.57
2019-05-07T20:04:21.807Z,11.20
2019-05-07T20:06:53.003Z,9.50
2019-05-07T20:09:28.791Z,9.80
2019-05-07T20:11:59.691Z,9.53
2019-05-07T20:14:33.113Z,9.97
2019-05-07T20:17:04.471Z,9.47
2019-05-07T20:19:35.880Z,9.63
2019-05-07T20:22:07.101Z,9.30
2019-05-07T20:24:38.535Z,9.47
2019-05-07T20:27:09.761Z,8.70
2019-05-07T20:29:42.661Z,8.63
2019-05-07T20:32:13.343Z,8.97
2019-05-07T20:34:44.483Z,8.60
2019-05-07T20:37:15.644Z,7.83
2019-05-07T20:39:46.824Z,8.20
2019-05-07T20:42:18.256Z,8.67
2019-05-07T20:44:51.543Z,8.40
2019-05-07T20:47:22.170Z,8.87
2019-05-07T20:49:53.412Z,8.37
2019-05-07T20:52:24.611Z,8.33
2019-05-07T20:55:07.704Z,8.60
2019-05-07T20:57:42.789Z,9.07
2019-05-07T21:00:22.822Z,7.97
2019-05-07T21:03:12.659Z,9.10
2019-05-07T21:05:44.247Z,8.00
2019-05-07T21:08:15.787Z,7.77
2019-05-07T21:10:47.318Z,7.37
2019-05-07T21:13:30.138Z,7.80
2019-05-07T21:15:52.668Z,7.83
2019-05-07T21:18:24.739Z,7.90
2019-05-07T21:20:55.914Z,7.87
2019-05-07T21:23:26.918Z,6.60
2019-05-07T21:25:58.080Z,7.27
2019-05-07T21:28:28.974Z,8.03
2019-05-07T21:30:59.928Z,8.47
2019-05-07T21:33:32.322Z,8.10
2019-05-07T21:36:03.410Z,7.20
2019-05-07T21:38:34.306Z,7.93
2019-05-07T21:41:06.506Z,8.33
2019-05-07T21:43:38.625Z,7.37
2019-05-07T21:46:09.772Z,7.10
2019-05-07T21:48:40.972Z,7.87
2019-05-07T21:51:12.408Z,7.20
2019-05-07T21:53:53.752Z,7.27
2019-05-07T21:56:36.374Z,7.87
2019-05-07T22:02:24.107Z,8.00
2019-05-07T22:04:55.679Z,7.57
2019-05-07T22:07:27.276Z,7.30
2019-05-07T22:09:58.587Z,8.10
2019-05-07T22:12:31.896Z,8.47
2019-05-07T22:15:04.577Z,7.67
2019-05-07T22:17:35.674Z,8.03
2019-05-07T22:20:07.291Z,6.60
2019-05-07T22:22:38.431Z,7.70
2019-05-07T22:25:13.042Z,6.87
2019-05-07T22:27:45.697Z,7.60
2019-05-07T22:30:24.435Z,7.17
2019-05-07T22:33:02.488Z,7.53
2019-05-07T22:35:39.959Z,7.63
2019-05-07T22:38:27.503Z,6.93
2019-05-07T22:40:59.618Z,7.00
2019-05-07T22:43:31.841Z,7.00
2019-05-07T22:46:04.515Z,7.03
2019-05-07T22:48:35.720Z,7.37
2019-05-07T22:51:06.998Z,7.10
2019-05-07T22:53:38.111Z,7.60
2019-05-07T22:56:09.265Z,7.40
2019-05-07T22:58:44.233Z,7.03
2019-05-07T23:01:15.559Z,7.40
2019-05-07T23:03:46.724Z,8.13
2019-05-07T23:06:17.899Z,8.33
2019-05-07T23:08:49.935Z,8.33
2019-05-07T23:11:22.947Z,8.03
2019-05-07T23:13:54.830Z,7.90
2019-05-07T23:16:26.172Z,9.40
2019-05-07T23:18:58.075Z,8.20
2019-05-07T23:21:29.223Z,8.00
2019-05-07T23:24:01.589Z,7.60
2019-05-07T23:26:46.589Z,8.27
2019-05-07T23:29:05.424Z,8.57
2019-05-07T23:31:36.511Z,10.20
2019-05-07T23:34:07.415Z,9.10
2019-05-07T23:36:38.580Z,8.97
2019-05-07T23:39:12.043Z,8.07
2019-05-07T23:41:52.601Z,8.37
2019-05-07T23:44:25.463Z,9.77
2019-05-07T23:46:56.367Z,9.50
2019-05-07T23:49:27.367Z,9.80
2019-05-07T23:51:58.539Z,9.63
2019-05-07T23:54:31.740Z,10.17
2019-05-07T23:57:07.176Z,9.43
2019-05-07T23:59:35.298Z,11.00
